sensor_id;sensor_type;location;lat;lon;timestamp;P1;durP1;ratioP1;P2;durP2;ratioP2
58978;SDS011;44763;50.464;30.612;2022-09-09T00:04:51;4.53;;;3.30;;
58978;SDS011;44763;50.464;30.612;2022-09-09T00:07:21;2.83;;;2.50;;
58978;SDS011;44763;50.464;30.612;2022-09-09T00:20:59;5.60;;;2.50;;
58978;SDS011;44763;50.464;30.612;2022-09-09T00:23:39;2.90;;;2.60;;
58978;SDS011;44763;50.464;30.612;2022-09-09T00:26:35;2.23;;;2.03;;
58978;SDS011;44763;50.464;30.612;2022-09-09T00:29:12;2.83;;;2.47;;
58978;SDS011;44763;50.464;30.612;2022-09-09T00:31:41;2.77;;;2.37;;
58978;SDS011;44763;50.464;30.612;2022-09-09T00:36:48;6.03;;;2.70;;
58978;SDS011;44763;50.464;30.612;2022-09-09T00:44:52;3.43;;;2.53;;
58978;SDS011;44763;50.464;30.612;2022-09-09T00:47:50;3.33;;;2.37;;
58978;SDS011;44763;50.464;30.612;2022-09-09T00:58:34;4.23;;;2.37;;
58978;SDS011;44763;50.464;30.612;2022-09-09T01:01:05;3.03;;;2.20;;
58978;SDS011;44763;50.464;30.612;2022-09-09T01:03:39;2.15;;;1.77;;
58978;SDS011;44763;50.464;30.612;2022-09-09T01:06:25;3.40;;;2.03;;
58978;SDS011;44763;50.464;30.612;2022-09-09T01:14:43;5.13;;;2.30;;
58978;SDS011;44763;50.464;30.612;2022-09-09T01:20:26;3.27;;;2.33;;
58978;SDS011;44763;50.464;30.612;2022-09-09T01:29:02;2.53;;;2.03;;
58978;SDS011;44763;50.464;30.612;2022-09-09T01:31:38;4.87;;;2.57;;
58978;SDS011;44763;50.464;30.612;2022-09-09T01:34:09;2.50;;;2.30;;
58978;SDS011;44763;50.464;30.612;2022-09-09T01:39:19;3.37;;;2.47;;
58978;SDS011;44763;50.464;30.612;2022-09-09T01:41:49;3.60;;;2.47;;
58978;SDS011;44763;50.464;30.612;2022-09-09T01:44:17;3.23;;;1.80;;
58978;SDS011;44763;50.464;30.612;2022-09-09T01:46:46;3.33;;;2.40;;
58978;SDS011;44763;50.464;30.612;2022-09-09T01:49:16;3.50;;;2.87;;
58978;SDS011;44763;50.464;30.612;2022-09-09T01:51:43;5.00;;;2.43;;
58978;SDS011;44763;50.464;30.612;2022-09-09T01:54:13;3.53;;;2.20;;
58978;SDS011;44763;50.464;30.612;2022-09-09T02:02:12;3.17;;;2.43;;
58978;SDS011;44763;50.464;30.612;2022-09-09T02:04:57;3.37;;;2.87;;
58978;SDS011;44763;50.464;30.612;2022-09-09T02:07:48;4.17;;;3.07;;
58978;SDS011;44763;50.464;30.612;2022-09-09T02:10:28;3.47;;;2.40;;
58978;SDS011;44763;50.464;30.612;2022-09-09T02:13:20;5.20;;;3.03;;
58978;SDS011;44763;50.464;30.612;2022-09-09T02:18:35;6.33;;;3.27;;
58978;SDS011;44763;50.464;30.612;2022-09-09T02:21:56;6.47;;;2.97;;
58978;SDS011;44763;50.464;30.612;2022-09-09T02:26:29;3.87;;;2.90;;
58978;SDS011;44763;50.464;30.612;2022-09-09T02:29:01;3.97;;;3.20;;
58978;SDS011;44763;50.464;30.612;2022-09-09T02:31:30;4.37;;;2.23;;
58978;SDS011;44763;50.464;30.612;2022-09-09T02:34:02;3.60;;;2.43;;
58978;SDS011;44763;50.464;30.612;2022-09-09T02:36:35;4.23;;;3.47;;
58978;SDS011;44763;50.464;30.612;2022-09-09T02:39:06;3.33;;;2.57;;
58978;SDS011;44763;50.464;30.612;2022-09-09T02:41:35;3.50;;;3.17;;
58978;SDS011;44763;50.464;30.612;2022-09-09T02:44:08;3.37;;;2.70;;
58978;SDS011;44763;50.464;30.612;2022-09-09T02:52:45;6.27;;;3.53;;
58978;SDS011;44763;50.464;30.612;2022-09-09T02:55:41;5.67;;;3.60;;
58978;SDS011;44763;50.464;30.612;2022-09-09T03:02:20;4.40;;;3.47;;
58978;SDS011;44763;50.464;30.612;2022-09-09T03:04:48;4.43;;;3.33;;
58978;SDS011;44763;50.464;30.612;2022-09-09T03:07:18;4.27;;;3.60;;
58978;SDS011;44763;50.464;30.612;2022-09-09T03:09:45;4.73;;;3.13;;
58978;SDS011;44763;50.464;30.612;2022-09-09T03:12:11;6.08;;;3.67;;
58978;SDS011;44763;50.464;30.612;2022-09-09T03:14:38;3.97;;;3.27;;
58978;SDS011;44763;50.464;30.612;2022-09-09T03:17:06;4.03;;;3.57;;
58978;SDS011;44763;50.464;30.612;2022-09-09T03:19:36;3.90;;;3.50;;
58978;SDS011;44763;50.464;30.612;2022-09-09T03:22:03;5.37;;;3.57;;
58978;SDS011;44763;50.464;30.612;2022-09-09T03:24:30;4.97;;;3.60;;
58978;SDS011;44763;50.464;30.612;2022-09-09T03:26:57;5.10;;;4.05;;
58978;SDS011;44763;50.464;30.612;2022-09-09T03:31:51;5.47;;;3.55;;
58978;SDS011;44763;50.464;30.612;2022-09-09T03:34:17;5.30;;;3.27;;
58978;SDS011;44763;50.464;30.612;2022-09-09T03:36:44;3.50;;;2.83;;
58978;SDS011;44763;50.464;30.612;2022-09-09T03:39:10;6.40;;;3.97;;
58978;SDS011;44763;50.464;30.612;2022-09-09T03:41:38;5.20;;;3.43;;
58978;SDS011;44763;50.464;30.612;2022-09-09T03:46:33;5.20;;;2.70;;
58978;SDS011;44763;50.464;30.612;2022-09-09T03:51:26;3.17;;;2.63;;
58978;SDS011;44763;50.464;30.612;2022-09-09T03:53:52;5.87;;;3.77;;
58978;SDS011;44763;50.464;30.612;2022-09-09T03:56:20;3.33;;;2.80;;
58978;SDS011;44763;50.464;30.612;2022-09-09T03:58:47;3.53;;;2.70;;
58978;SDS011;44763;50.464;30.612;2022-09-09T04:01:13;3.40;;;3.10;;
58978;SDS011;44763;50.464;30.612;2022-09-09T04:03:42;3.20;;;2.87;;
58978;SDS011;44763;50.464;30.612;2022-09-09T04:06:10;3.60;;;2.90;;
58978;SDS011;44763;50.464;30.612;2022-09-09T04:08:40;3.02;;;2.40;;
58978;SDS011;44763;50.464;30.612;2022-09-09T04:11:07;3.47;;;2.95;;
58978;SDS011;44763;50.464;30.612;2022-09-09T04:13:36;3.37;;;2.70;;
58978;SDS011;44763;50.464;30.612;2022-09-09T04:16:06;2.83;;;2.62;;
58978;SDS011;44763;50.464;30.612;2022-09-09T04:18:36;3.47;;;2.27;;
58978;SDS011;44763;50.464;30.612;2022-09-09T04:23:30;3.12;;;2.83;;
58978;SDS011;44763;50.464;30.612;2022-09-09T04:25:57;5.67;;;2.85;;
58978;SDS011;44763;50.464;30.612;2022-09-09T04:28:27;3.27;;;2.10;;
58978;SDS011;44763;50.464;30.612;2022-09-09T04:30:55;5.17;;;2.80;;
58978;SDS011;44763;50.464;30.612;2022-09-09T04:33:24;3.50;;;2.52;;
58978;SDS011;44763;50.464;30.612;2022-09-09T04:35:54;5.55;;;3.35;;
58978;SDS011;44763;50.464;30.612;2022-09-09T04:38:21;3.20;;;2.45;;
58978;SDS011;44763;50.464;30.612;2022-09-09T04:40:50;4.78;;;3.47;;
58978;SDS011;44763;50.464;30.612;2022-09-09T04:43:20;3.90;;;2.87;;
58978;SDS011;44763;50.464;30.612;2022-09-09T04:45:48;3.65;;;2.98;;
58978;SDS011;44763;50.464;30.612;2022-09-09T04:48:15;4.67;;;2.80;;
58978;SDS011;44763;50.464;30.612;2022-09-09T04:50:42;3.45;;;2.80;;
58978;SDS011;44763;50.464;30.612;2022-09-09T04:53:10;3.87;;;2.95;;
58978;SDS011;44763;50.464;30.612;2022-09-09T04:55:38;3.10;;;2.20;;
58978;SDS011;44763;50.464;30.612;2022-09-09T04:58:04;6.50;;;2.60;;
58978;SDS011;44763;50.464;30.612;2022-09-09T05:00:34;3.30;;;3.00;;
58978;SDS011;44763;50.464;30.612;2022-09-09T05:03:05;4.17;;;2.50;;
58978;SDS011;44763;50.464;30.612;2022-09-09T05:05:34;4.40;;;3.15;;
58978;SDS011;44763;50.464;30.612;2022-09-09T05:08:03;3.95;;;2.02;;
58978;SDS011;44763;50.464;30.612;2022-09-09T05:10:31;1.98;;;1.65;;
58978;SDS011;44763;50.464;30.612;2022-09-09T05:12:58;2.00;;;1.85;;
58978;SDS011;44763;50.464;30.612;2022-09-09T05:15:28;3.85;;;2.65;;
58978;SDS011;44763;50.464;30.612;2022-09-09T05:20:24;3.47;;;2.42;;
58978;SDS011;44763;50.464;30.612;2022-09-09T05:25:22;2.37;;;1.87;;
58978;SDS011;44763;50.464;30.612;2022-09-09T05:27:52;3.27;;;1.85;;
58978;SDS011;44763;50.464;30.612;2022-09-09T05:30:20;1.80;;;1.70;;
58978;SDS011;44763;50.464;30.612;2022-09-09T05:32:49;3.15;;;2.10;;
58978;SDS011;44763;50.464;30.612;2022-09-09T05:35:16;2.33;;;1.50;;
58978;SDS011;44763;50.464;30.612;2022-09-09T05:37:44;3.00;;;2.15;;
58978;SDS011;44763;50.464;30.612;2022-09-09T05:40:12;3.30;;;1.25;;
58978;SDS011;44763;50.464;30.612;2022-09-09T05:42:40;5.75;;;1.95;;
58978;SDS011;44763;50.464;30.612;2022-09-09T05:45:07;6.35;;;2.72;;
58978;SDS011;44763;50.464;30.612;2022-09-09T05:47:35;5.37;;;3.30;;
58978;SDS011;44763;50.464;30.612;2022-09-09T05:50:04;4.28;;;2.37;;
58978;SDS011;44763;50.464;30.612;2022-09-09T05:52:31;1.80;;;1.67;;
58978;SDS011;44763;50.464;30.612;2022-09-09T05:54:59;3.17;;;2.50;;
58978;SDS011;44763;50.464;30.612;2022-09-09T05:57:25;2.33;;;1.90;;
58978;SDS011;44763;50.464;30.612;2022-09-09T05:59:51;2.02;;;1.35;;
58978;SDS011;44763;50.464;30.612;2022-09-09T06:04:44;3.72;;;1.40;;
58978;SDS011;44763;50.464;30.612;2022-09-09T06:07:11;3.25;;;1.40;;
58978;SDS011;44763;50.464;30.612;2022-09-09T06:09:38;1.90;;;1.67;;
58978;SDS011;44763;50.464;30.612;2022-09-09T06:12:06;1.20;;;0.90;;
58978;SDS011;44763;50.464;30.612;2022-09-09T06:14:35;3.12;;;2.27;;
58978;SDS011;44763;50.464;30.612;2022-09-09T06:17:02;3.35;;;1.32;;
58978;SDS011;44763;50.464;30.612;2022-09-09T06:19:30;3.00;;;1.60;;
58978;SDS011;44763;50.464;30.612;2022-09-09T06:21:57;1.87;;;1.55;;
58978;SDS011;44763;50.464;30.612;2022-09-09T06:24:26;2.15;;;1.45;;
58978;SDS011;44763;50.464;30.612;2022-09-09T06:26:52;4.15;;;1.65;;
58978;SDS011;44763;50.464;30.612;2022-09-09T06:29:21;4.53;;;1.52;;
58978;SDS011;44763;50.464;30.612;2022-09-09T06:31:47;6.15;;;2.05;;
58978;SDS011;44763;50.464;30.612;2022-09-09T06:34:15;3.00;;;1.27;;
58978;SDS011;44763;50.464;30.612;2022-09-09T06:36:45;1.77;;;1.67;;
58978;SDS011;44763;50.464;30.612;2022-09-09T06:41:39;1.45;;;1.35;;
58978;SDS011;44763;50.464;30.612;2022-09-09T06:44:07;3.85;;;1.62;;
58978;SDS011;44763;50.464;30.612;2022-09-09T06:46:34;3.20;;;2.02;;
58978;SDS011;44763;50.464;30.612;2022-09-09T06:49:01;1.57;;;1.37;;
58978;SDS011;44763;50.464;30.612;2022-09-09T06:51:29;4.22;;;0.88;;
58978;SDS011;44763;50.464;30.612;2022-09-09T06:54:02;1.42;;;1.25;;
58978;SDS011;44763;50.464;30.612;2022-09-09T06:56:37;3.08;;;1.42;;
58978;SDS011;44763;50.464;30.612;2022-09-09T06:59:10;1.85;;;1.50;;
58978;SDS011;44763;50.464;30.612;2022-09-09T07:01:39;4.20;;;1.45;;
58978;SDS011;44763;50.464;30.612;2022-09-09T07:04:09;4.15;;;1.80;;
58978;SDS011;44763;50.464;30.612;2022-09-09T07:06:40;1.52;;;0.90;;
58978;SDS011;44763;50.464;30.612;2022-09-09T07:09:13;2.17;;;1.75;;
58978;SDS011;44763;50.464;30.612;2022-09-09T07:11:46;3.45;;;1.57;;
58978;SDS011;44763;50.464;30.612;2022-09-09T07:14:15;1.55;;;1.42;;
58978;SDS011;44763;50.464;30.612;2022-09-09T07:16:44;0.72;;;0.68;;
58978;SDS011;44763;50.464;30.612;2022-09-09T07:19:13;3.77;;;1.15;;
58978;SDS011;44763;50.464;30.612;2022-09-09T07:21:40;1.82;;;1.10;;
58978;SDS011;44763;50.464;30.612;2022-09-09T07:24:09;1.60;;;0.90;;
58978;SDS011;44763;50.464;30.612;2022-09-09T07:26:38;6.42;;;1.45;;
58978;SDS011;44763;50.464;30.612;2022-09-09T07:29:06;1.10;;;1.00;;
58978;SDS011;44763;50.464;30.612;2022-09-09T07:31:34;3.25;;;1.07;;
58978;SDS011;44763;50.464;30.612;2022-09-09T07:34:04;1.20;;;0.95;;
58978;SDS011;44763;50.464;30.612;2022-09-09T07:36:32;4.03;;;0.95;;
58978;SDS011;44763;50.464;30.612;2022-09-09T07:39:07;2.70;;;0.68;;
58978;SDS011;44763;50.464;30.612;2022-09-09T07:41:42;1.12;;;1.02;;
58978;SDS011;44763;50.464;30.612;2022-09-09T07:44:16;2.15;;;1.07;;
58978;SDS011;44763;50.464;30.612;2022-09-09T07:46:43;3.08;;;0.60;;
58978;SDS011;44763;50.464;30.612;2022-09-09T07:49:11;1.62;;;1.05;;
58978;SDS011;44763;50.464;30.612;2022-09-09T07:51:39;1.22;;;0.53;;
58978;SDS011;44763;50.464;30.612;2022-09-09T07:54:10;0.62;;;0.50;;
58978;SDS011;44763;50.464;30.612;2022-09-09T07:56:40;2.65;;;0.70;;
58978;SDS011;44763;50.464;30.612;2022-09-09T07:59:08;0.65;;;0.30;;
58978;SDS011;44763;50.464;30.612;2022-09-09T08:01:37;0.78;;;0.50;;
58978;SDS011;44763;50.464;30.612;2022-09-09T08:04:09;1.65;;;0.45;;
58978;SDS011;44763;50.464;30.612;2022-09-09T08:06:45;0.37;;;0.20;;
58978;SDS011;44763;50.464;30.612;2022-09-09T08:09:16;1.32;;;0.20;;
58978;SDS011;44763;50.464;30.612;2022-09-09T08:11:43;1.27;;;0.50;;
58978;SDS011;44763;50.464;30.612;2022-09-09T08:14:10;0.53;;;0.37;;
58978;SDS011;44763;50.464;30.612;2022-09-09T08:16:39;0.75;;;0.50;;
58978;SDS011;44763;50.464;30.612;2022-09-09T08:19:10;1.75;;;0.37;;
58978;SDS011;44763;50.464;30.612;2022-09-09T08:21:39;0.53;;;0.10;;
58978;SDS011;44763;50.464;30.612;2022-09-09T08:24:07;0.40;;;0.20;;
58978;SDS011;44763;50.464;30.612;2022-09-09T08:26:37;1.15;;;0.10;;
58978;SDS011;44763;50.464;30.612;2022-09-09T08:29:09;0.93;;;0.15;;
58978;SDS011;44763;50.464;30.612;2022-09-09T08:31:38;2.08;;;0.20;;
58978;SDS011;44763;50.464;30.612;2022-09-09T08:34:08;0.80;;;0.10;;
58978;SDS011;44763;50.464;30.612;2022-09-09T08:36:38;0.40;;;0.10;;
58978;SDS011;44763;50.464;30.612;2022-09-09T08:39:09;0.85;;;0.10;;
58978;SDS011;44763;50.464;30.612;2022-09-09T08:50:19;1.75;;;0.10;;
58978;SDS011;44763;50.464;30.612;2022-09-09T08:58:18;0.60;;;0.20;;
58978;SDS011;44763;50.464;30.612;2022-09-09T09:12:35;0.62;;;0.30;;
58978;SDS011;44763;50.464;30.612;2022-09-09T09:15:08;0.20;;;0.10;;
58978;SDS011;44763;50.464;30.612;2022-09-09T09:17:44;1.32;;;0.20;;
58978;SDS011;44763;50.464;30.612;2022-09-09T09:20:12;0.50;;;0.23;;
58978;SDS011;44763;50.464;30.612;2022-09-09T09:22:51;0.30;;;0.30;;
58978;SDS011;44763;50.464;30.612;2022-09-09T09:25:23;0.60;;;0.40;;
58978;SDS011;44763;50.464;30.612;2022-09-09T09:27:59;1.72;;;0.30;;
58978;SDS011;44763;50.464;30.612;2022-09-09T09:30:40;3.47;;;1.05;;
58978;SDS011;44763;50.464;30.612;2022-09-09T09:33:35;5.75;;;0.20;;
58978;SDS011;44763;50.464;30.612;2022-09-09T09:36:17;1.12;;;0.10;;
58978;SDS011;44763;50.464;30.612;2022-09-09T09:38:56;0.15;;;0.10;;
58978;SDS011;44763;50.464;30.612;2022-09-09T09:41:34;1.32;;;0.10;;
58978;SDS011;44763;50.464;30.612;2022-09-09T09:44:04;0.33;;;0.20;;
58978;SDS011;44763;50.464;30.612;2022-09-09T09:46:34;1.17;;;0.20;;
58978;SDS011;44763;50.464;30.612;2022-09-09T09:49:05;2.87;;;0.10;;
58978;SDS011;44763;50.464;30.612;2022-09-09T09:51:36;0.42;;;0.10;;
58978;SDS011;44763;50.464;30.612;2022-09-09T09:56:43;0.28;;;0.10;;
58978;SDS011;44763;50.464;30.612;2022-09-09T10:05:05;0.30;;;0.20;;
58978;SDS011;44763;50.464;30.612;2022-09-09T10:07:32;0.60;;;0.10;;
58978;SDS011;44763;50.464;30.612;2022-09-09T10:09:59;0.30;;;0.10;;
58978;SDS011;44763;50.464;30.612;2022-09-09T10:12:30;2.50;;;0.10;;
58978;SDS011;44763;50.464;30.612;2022-09-09T10:20:54;0.30;;;0.20;;
58978;SDS011;44763;50.464;30.612;2022-09-09T10:23:57;1.75;;;0.10;;
58978;SDS011;44763;50.464;30.612;2022-09-09T10:26:58;0.72;;;0.40;;
58978;SDS011;44763;50.464;30.612;2022-09-09T10:33:12;0.88;;;0.30;;
58978;SDS011;44763;50.464;30.612;2022-09-09T10:35:56;3.25;;;0.10;;
58978;SDS011;44763;50.464;30.612;2022-09-09T10:53:14;0.72;;;0.10;;
58978;SDS011;44763;50.464;30.612;2022-09-09T10:55:53;0.62;;;0.10;;
58978;SDS011;44763;50.464;30.612;2022-09-09T10:58:28;2.12;;;0.20;;
58978;SDS011;44763;50.464;30.612;2022-09-09T11:01:09;0.45;;;0.20;;
58978;SDS011;44763;50.464;30.612;2022-09-09T11:03:49;1.45;;;0.10;;
58978;SDS011;44763;50.464;30.612;2022-09-09T11:06:48;0.10;;;0.10;;
58978;SDS011;44763;50.464;30.612;2022-09-09T11:09:19;0.20;;;0.20;;
58978;SDS011;44763;50.464;30.612;2022-09-09T11:11:53;0.20;;;0.10;;
58978;SDS011;44763;50.464;30.612;2022-09-09T11:17:03;0.28;;;0.10;;
58978;SDS011;44763;50.464;30.612;2022-09-09T11:19:42;0.50;;;0.10;;
58978;SDS011;44763;50.464;30.612;2022-09-09T11:24:55;0.45;;;0.40;;
58978;SDS011;44763;50.464;30.612;2022-09-09T11:43:09;0.65;;;0.10;;
58978;SDS011;44763;50.464;30.612;2022-09-09T11:45:41;3.33;;;0.20;;
58978;SDS011;44763;50.464;30.612;2022-09-09T11:53:52;0.85;;;0.20;;
58978;SDS011;44763;50.464;30.612;2022-09-09T12:06:57;0.45;;;0.10;;
58978;SDS011;44763;50.464;30.612;2022-09-09T12:12:32;0.50;;;0.10;;
58978;SDS011;44763;50.464;30.612;2022-09-09T12:17:50;1.20;;;0.10;;
58978;SDS011;44763;50.464;30.612;2022-09-09T12:20:37;0.53;;;0.17;;
58978;SDS011;44763;50.464;30.612;2022-09-09T12:23:10;1.50;;;0.10;;
58978;SDS011;44763;50.464;30.612;2022-09-09T12:25:47;1.95;;;0.17;;
58978;SDS011;44763;50.464;30.612;2022-09-09T12:28:39;2.30;;;0.10;;
58978;SDS011;44763;50.464;30.612;2022-09-09T12:31:18;0.20;;;0.10;;
58978;SDS011;44763;50.464;30.612;2022-09-09T12:34:17;1.85;;;0.20;;
58978;SDS011;44763;50.464;30.612;2022-09-09T12:37:02;0.30;;;0.10;;
58978;SDS011;44763;50.464;30.612;2022-09-09T12:42:18;0.78;;;0.10;;
58978;SDS011;44763;50.464;30.612;2022-09-09T12:44:54;1.92;;;0.20;;
58978;SDS011;44763;50.464;30.612;2022-09-09T12:47:37;4.45;;;0.65;;
58978;SDS011;44763;50.464;30.612;2022-09-09T12:50:14;2.75;;;0.20;;
58978;SDS011;44763;50.464;30.612;2022-09-09T12:52:49;3.55;;;0.37;;
58978;SDS011;44763;50.464;30.612;2022-09-09T12:55:21;0.40;;;0.20;;
58978;SDS011;44763;50.464;30.612;2022-09-09T12:57:51;2.37;;;0.17;;
58978;SDS011;44763;50.464;30.612;2022-09-09T13:00:19;2.25;;;0.13;;
58978;SDS011;44763;50.464;30.612;2022-09-09T13:02:51;3.50;;;0.20;;
58978;SDS011;44763;50.464;30.612;2022-09-09T13:05:23;0.20;;;0.10;;
58978;SDS011;44763;50.464;30.612;2022-09-09T13:08:03;2.00;;;0.20;;
58978;SDS011;44763;50.464;30.612;2022-09-09T13:10:43;2.15;;;0.20;;
58978;SDS011;44763;50.464;30.612;2022-09-09T13:13:19;0.47;;;0.28;;
58978;SDS011;44763;50.464;30.612;2022-09-09T13:15:51;0.30;;;0.10;;
58978;SDS011;44763;50.464;30.612;2022-09-09T13:18:21;2.27;;;0.35;;
58978;SDS011;44763;50.464;30.612;2022-09-09T13:20:50;1.00;;;0.10;;
58978;SDS011;44763;50.464;30.612;2022-09-09T13:23:18;0.25;;;0.20;;
58978;SDS011;44763;50.464;30.612;2022-09-09T13:25:58;0.62;;;0.20;;
58978;SDS011;44763;50.464;30.612;2022-09-09T13:28:28;0.72;;;0.55;;
58978;SDS011;44763;50.464;30.612;2022-09-09T13:30:58;3.45;;;0.20;;
58978;SDS011;44763;50.464;30.612;2022-09-09T13:33:32;3.92;;;0.28;;
58978;SDS011;44763;50.464;30.612;2022-09-09T13:36:04;3.50;;;0.30;;
58978;SDS011;44763;50.464;30.612;2022-09-09T13:38:38;1.98;;;0.20;;
58978;SDS011;44763;50.464;30.612;2022-09-09T13:41:22;2.27;;;0.20;;
58978;SDS011;44763;50.464;30.612;2022-09-09T13:44:06;0.60;;;0.40;;
58978;SDS011;44763;50.464;30.612;2022-09-09T13:46:39;0.30;;;0.15;;
58978;SDS011;44763;50.464;30.612;2022-09-09T13:51:39;1.75;;;0.15;;
58978;SDS011;44763;50.464;30.612;2022-09-09T13:54:13;2.47;;;0.20;;
58978;SDS011;44763;50.464;30.612;2022-09-09T13:56:41;0.40;;;0.20;;
58978;SDS011;44763;50.464;30.612;2022-09-09T13:59:13;0.42;;;0.10;;
58978;SDS011;44763;50.464;30.612;2022-09-09T14:01:42;0.55;;;0.20;;
58978;SDS011;44763;50.464;30.612;2022-09-09T14:04:09;4.97;;;0.20;;
58978;SDS011;44763;50.464;30.612;2022-09-09T14:06:37;0.80;;;0.10;;
58978;SDS011;44763;50.464;30.612;2022-09-09T14:09:05;6.85;;;0.35;;
58978;SDS011;44763;50.464;30.612;2022-09-09T14:11:33;0.20;;;0.17;;
58978;SDS011;44763;50.464;30.612;2022-09-09T14:14:00;0.40;;;0.10;;
58978;SDS011;44763;50.464;30.612;2022-09-09T14:16:26;1.25;;;0.20;;
58978;SDS011;44763;50.464;30.612;2022-09-09T14:18:53;0.37;;;0.20;;
58978;SDS011;44763;50.464;30.612;2022-09-09T14:21:21;0.53;;;0.20;;
58978;SDS011;44763;50.464;30.612;2022-09-09T14:23:48;0.80;;;0.10;;
58978;SDS011;44763;50.464;30.612;2022-09-09T14:26:14;0.53;;;0.10;;
58978;SDS011;44763;50.464;30.612;2022-09-09T14:28:40;2.45;;;0.72;;
58978;SDS011;44763;50.464;30.612;2022-09-09T14:31:07;0.40;;;0.10;;
58978;SDS011;44763;50.464;30.612;2022-09-09T14:33:33;2.50;;;0.30;;
58978;SDS011;44763;50.464;30.612;2022-09-09T14:36:02;0.23;;;0.20;;
58978;SDS011;44763;50.464;30.612;2022-09-09T14:38:30;0.13;;;0.10;;
58978;SDS011;44763;50.464;30.612;2022-09-09T14:42:41;1.75;;;0.20;;
58978;SDS011;44763;50.464;30.612;2022-09-09T14:45:08;0.65;;;0.33;;
58978;SDS011;44763;50.464;30.612;2022-09-09T14:47:35;3.95;;;0.20;;
58978;SDS011;44763;50.464;30.612;2022-09-09T14:50:01;3.98;;;0.62;;
58978;SDS011;44763;50.464;30.612;2022-09-09T14:52:30;5.22;;;0.80;;
58978;SDS011;44763;50.464;30.612;2022-09-09T14:54:57;3.65;;;0.33;;
58978;SDS011;44763;50.464;30.612;2022-09-09T14:59:49;2.60;;;0.50;;
58978;SDS011;44763;50.464;30.612;2022-09-09T15:04:42;1.37;;;0.35;;
58978;SDS011;44763;50.464;30.612;2022-09-09T15:07:10;2.02;;;0.62;;
58978;SDS011;44763;50.464;30.612;2022-09-09T15:09:36;3.10;;;0.20;;
58978;SDS011;44763;50.464;30.612;2022-09-09T15:12:03;1.07;;;0.30;;
58978;SDS011;44763;50.464;30.612;2022-09-09T15:14:30;2.33;;;0.10;;
58978;SDS011;44763;50.464;30.612;2022-09-09T15:16:56;3.00;;;0.78;;
58978;SDS011;44763;50.464;30.612;2022-09-09T15:19:22;3.25;;;0.30;;
58978;SDS011;44763;50.464;30.612;2022-09-09T15:21:48;1.95;;;0.30;;
58978;SDS011;44763;50.464;30.612;2022-09-09T15:24:14;1.35;;;0.20;;
58978;SDS011;44763;50.464;30.612;2022-09-09T15:26:41;0.55;;;0.40;;
58978;SDS011;44763;50.464;30.612;2022-09-09T15:29:07;0.93;;;0.47;;
58978;SDS011;44763;50.464;30.612;2022-09-09T15:31:35;2.40;;;0.55;;
58978;SDS011;44763;50.464;30.612;2022-09-09T15:34:03;3.62;;;0.80;;
58978;SDS011;44763;50.464;30.612;2022-09-09T15:36:32;1.85;;;1.62;;
58978;SDS011;44763;50.464;30.612;2022-09-09T15:39:02;6.10;;;3.75;;
58978;SDS011;44763;50.464;30.612;2022-09-09T15:41:37;8.75;;;5.85;;
58978;SDS011;44763;50.464;30.612;2022-09-09T15:44:03;11.45;;;8.20;;
58978;SDS011;44763;50.464;30.612;2022-09-09T15:46:32;17.77;;;10.93;;
58978;SDS011;44763;50.464;30.612;2022-09-09T15:49:11;15.83;;;11.28;;
58978;SDS011;44763;50.464;30.612;2022-09-09T15:51:41;19.12;;;12.18;;
58978;SDS011;44763;50.464;30.612;2022-09-09T15:54:14;18.60;;;13.40;;
58978;SDS011;44763;50.464;30.612;2022-09-09T15:56:44;26.33;;;14.03;;
58978;SDS011;44763;50.464;30.612;2022-09-09T15:59:13;19.98;;;13.28;;
58978;SDS011;44763;50.464;30.612;2022-09-09T16:01:40;20.65;;;13.32;;
58978;SDS011;44763;50.464;30.612;2022-09-09T16:04:07;23.70;;;13.00;;
58978;SDS011;44763;50.464;30.612;2022-09-09T16:06:34;23.35;;;13.05;;
58978;SDS011;44763;50.464;30.612;2022-09-09T16:09:01;14.50;;;10.28;;
58978;SDS011;44763;50.464;30.612;2022-09-09T16:11:31;16.30;;;7.45;;
58978;SDS011;44763;50.464;30.612;2022-09-09T16:14:03;17.10;;;7.83;;
58978;SDS011;44763;50.464;30.612;2022-09-09T16:16:30;8.03;;;5.37;;
58978;SDS011;44763;50.464;30.612;2022-09-09T16:18:57;9.85;;;6.20;;
58978;SDS011;44763;50.464;30.612;2022-09-09T16:21:32;9.05;;;4.75;;
58978;SDS011;44763;50.464;30.612;2022-09-09T16:23:58;8.15;;;4.65;;
58978;SDS011;44763;50.464;30.612;2022-09-09T16:26:28;6.55;;;4.58;;
58978;SDS011;44763;50.464;30.612;2022-09-09T16:28:59;9.78;;;4.65;;
58978;SDS011;44763;50.464;30.612;2022-09-09T16:31:27;8.08;;;4.83;;
58978;SDS011;44763;50.464;30.612;2022-09-09T16:33:54;8.75;;;5.03;;
58978;SDS011;44763;50.464;30.612;2022-09-09T16:36:22;10.53;;;4.92;;
58978;SDS011;44763;50.464;30.612;2022-09-09T16:38:56;10.08;;;5.70;;
58978;SDS011;44763;50.464;30.612;2022-09-09T16:41:23;10.55;;;6.47;;
58978;SDS011;44763;50.464;30.612;2022-09-09T16:43:55;10.03;;;6.12;;
58978;SDS011;44763;50.464;30.612;2022-09-09T16:46:25;11.65;;;7.50;;
58978;SDS011;44763;50.464;30.612;2022-09-09T16:48:58;9.60;;;7.58;;
58978;SDS011;44763;50.464;30.612;2022-09-09T16:51:29;17.62;;;10.10;;
58978;SDS011;44763;50.464;30.612;2022-09-09T16:54:05;17.05;;;10.78;;
58978;SDS011;44763;50.464;30.612;2022-09-09T16:56:34;27.15;;;14.47;;
58978;SDS011;44763;50.464;30.612;2022-09-09T16:59:05;32.67;;;14.35;;
58978;SDS011;44763;50.464;30.612;2022-09-09T17:01:35;22.77;;;16.40;;
58978;SDS011;44763;50.464;30.612;2022-09-09T17:04:05;33.92;;;19.50;;
58978;SDS011;44763;50.464;30.612;2022-09-09T17:06:36;24.85;;;17.77;;
58978;SDS011;44763;50.464;30.612;2022-09-09T17:09:11;22.05;;;16.48;;
58978;SDS011;44763;50.464;30.612;2022-09-09T17:11:39;27.90;;;16.23;;
58978;SDS011;44763;50.464;30.612;2022-09-09T17:14:06;23.60;;;14.33;;
58978;SDS011;44763;50.464;30.612;2022-09-09T17:16:35;22.55;;;14.73;;
58978;SDS011;44763;50.464;30.612;2022-09-09T17:19:02;19.87;;;12.73;;
58978;SDS011;44763;50.464;30.612;2022-09-09T17:21:29;18.75;;;10.82;;
58978;SDS011;44763;50.464;30.612;2022-09-09T17:23:57;18.12;;;9.13;;
58978;SDS011;44763;50.464;30.612;2022-09-09T17:26:25;16.40;;;9.93;;
58978;SDS011;44763;50.464;30.612;2022-09-09T17:28:55;13.20;;;9.10;;
58978;SDS011;44763;50.464;30.612;2022-09-09T17:31:24;15.28;;;7.85;;
58978;SDS011;44763;50.464;30.612;2022-09-09T17:33:51;20.75;;;10.13;;
58978;SDS011;44763;50.464;30.612;2022-09-09T17:36:27;20.20;;;11.68;;
58978;SDS011;44763;50.464;30.612;2022-09-09T17:38:53;28.23;;;16.60;;
58978;SDS011;44763;50.464;30.612;2022-09-09T17:41:21;24.18;;;15.20;;
58978;SDS011;44763;50.464;30.612;2022-09-09T17:43:50;32.93;;;19.32;;
58978;SDS011;44763;50.464;30.612;2022-09-09T17:48:49;19.73;;;11.38;;
58978;SDS011;44763;50.464;30.612;2022-09-09T17:51:20;18.55;;;11.00;;
58978;SDS011;44763;50.464;30.612;2022-09-09T17:53:50;18.23;;;12.28;;
58978;SDS011;44763;50.464;30.612;2022-09-09T17:56:20;19.27;;;11.83;;
58978;SDS011;44763;50.464;30.612;2022-09-09T17:58:50;20.02;;;11.43;;
58978;SDS011;44763;50.464;30.612;2022-09-09T18:01:20;21.10;;;11.85;;
58978;SDS011;44763;50.464;30.612;2022-09-09T18:03:49;14.75;;;9.75;;
58978;SDS011;44763;50.464;30.612;2022-09-09T18:06:17;16.07;;;10.00;;
58978;SDS011;44763;50.464;30.612;2022-09-09T18:08:50;11.55;;;8.43;;
58978;SDS011;44763;50.464;30.612;2022-09-09T18:11:19;12.63;;;7.17;;
58978;SDS011;44763;50.464;30.612;2022-09-09T18:13:48;7.78;;;6.00;;
58978;SDS011;44763;50.464;30.612;2022-09-09T18:16:18;7.97;;;5.17;;
58978;SDS011;44763;50.464;30.612;2022-09-09T18:18:47;10.20;;;4.62;;